createdAt,value
2022-11-13T00:00:37.764Z,13.86
2022-11-13T00:03:04.122Z,13.87
2022-11-13T00:05:30.564Z,13.88
2022-11-13T00:07:57.045Z,13.90
2022-11-13T00:10:23.494Z,13.91
2022-11-13T00:12:49.857Z,13.95
2022-11-13T00:15:16.422Z,13.98
2022-11-13T00:17:42.813Z,13.99
2022-11-13T00:20:09.361Z,14.03
2022-11-13T00:22:35.817Z,14.04
2022-11-13T00:25:02.290Z,14.06
2022-11-13T00:27:31.191Z,14.06
2022-11-13T00:29:57.662Z,14.07
2022-11-13T00:32:24.040Z,14.09
2022-11-13T00:34:50.514Z,14.11
2022-11-13T00:37:16.953Z,14.11
2022-11-13T00:39:43.453Z,14.09
2022-11-13T00:42:10.023Z,14.10
2022-11-13T00:44:36.451Z,14.07
2022-11-13T00:47:02.846Z,14.07
2022-11-13T00:49:29.290Z,14.07
2022-11-13T00:51:55.724Z,14.06
2022-11-13T00:54:22.151Z,14.06
2022-11-13T00:56:48.593Z,14.05
2022-11-13T00:59:15.004Z,14.04
2022-11-13T01:01:41.409Z,14.03
2022-11-13T01:04:07.796Z,14.01
2022-11-13T01:06:34.183Z,13.98
2022-11-13T01:09:00.781Z,13.97
2022-11-13T01:11:29.619Z,13.92
2022-11-13T01:13:56.595Z,13.89
2022-11-13T01:16:28.030Z,13.84
2022-11-13T01:18:55.530Z,13.83
2022-11-13T01:21:24.732Z,13.79
2022-11-13T01:23:51.809Z,13.78
2022-11-13T01:26:28.037Z,13.74
2022-11-13T01:28:55.421Z,13.73
2022-11-13T01:31:25.084Z,13.70
2022-11-13T01:33:52.184Z,13.67
2022-11-13T01:36:27.665Z,13.60
2022-11-13T01:38:55.216Z,13.59
2022-11-13T01:41:31.977Z,13.52
2022-11-13T01:44:00.093Z,13.51
2022-11-13T01:46:31.478Z,13.46
2022-11-13T01:49:09.707Z,13.40
2022-11-13T01:51:50.439Z,13.35
2022-11-13T01:54:21.641Z,13.34
2022-11-13T01:56:49.009Z,13.30
2022-11-13T01:59:28.870Z,13.22
2022-11-13T02:01:56.308Z,13.23
2022-11-13T02:04:23.395Z,13.19
2022-11-13T02:06:54.505Z,13.14
2022-11-13T02:09:35.858Z,13.10
2022-11-13T02:12:05.597Z,13.08
2022-11-13T02:14:32.435Z,13.06
2022-11-13T02:17:02.144Z,13.02
2022-11-13T02:19:35.742Z,12.99
2022-11-13T02:22:28.384Z,12.96
2022-11-13T02:24:58.586Z,13.01
2022-11-13T02:27:30.888Z,12.99
2022-11-13T02:29:57.400Z,13.01
2022-11-13T02:32:23.824Z,13.03
2022-11-13T02:34:50.241Z,13.06
2022-11-13T02:37:16.680Z,13.08
2022-11-13T02:39:43.041Z,13.11
2022-11-13T02:42:09.457Z,13.14
2022-11-13T02:44:35.865Z,13.16
2022-11-13T02:47:02.238Z,13.19
2022-11-13T02:49:28.596Z,13.19
2022-11-13T02:51:55.009Z,13.20
2022-11-13T02:54:21.433Z,13.18
2022-11-13T02:56:47.961Z,13.15
2022-11-13T02:59:14.401Z,13.13
2022-11-13T03:01:40.814Z,13.10
2022-11-13T03:04:07.269Z,13.07
2022-11-13T03:06:33.786Z,13.03
2022-11-13T03:09:00.195Z,13.00
2022-11-13T03:11:26.559Z,12.96
2022-11-13T03:13:53.398Z,12.92
2022-11-13T03:16:19.808Z,12.88
2022-11-13T03:18:46.223Z,12.87
2022-11-13T03:21:14.695Z,12.85
2022-11-13T03:23:42.279Z,12.84
2022-11-13T03:26:11.687Z,12.83
2022-11-13T03:28:38.131Z,12.83
2022-11-13T03:31:05.433Z,12.82
2022-11-13T03:33:31.982Z,12.81
2022-11-13T03:35:58.626Z,12.79
2022-11-13T03:38:25.736Z,12.77
2022-11-13T03:40:52.415Z,12.73
2022-11-13T03:43:19.280Z,12.71
2022-11-13T03:45:47.083Z,12.68
2022-11-13T03:48:14.680Z,12.66
2022-11-13T03:50:46.888Z,12.62
2022-11-13T03:53:13.992Z,12.63
2022-11-13T03:55:41.472Z,12.62
2022-11-13T03:58:08.155Z,12.63
2022-11-13T04:00:35.483Z,12.63
2022-11-13T04:06:10.788Z,12.69
2022-11-13T04:08:37.284Z,12.71
2022-11-13T04:11:09.104Z,12.72
2022-11-13T04:13:35.708Z,12.78
2022-11-13T04:16:02.383Z,12.80
2022-11-13T04:18:29.036Z,12.83
2022-11-13T04:21:03.905Z,12.84
2022-11-13T04:23:31.172Z,12.89
2022-11-13T04:25:58.406Z,12.89
2022-11-13T04:28:24.960Z,12.92
2022-11-13T04:30:54.305Z,12.89
2022-11-13T04:33:20.937Z,12.89
2022-11-13T04:35:48.537Z,12.85
2022-11-13T04:38:15.633Z,12.81
2022-11-13T04:40:42.458Z,12.77
2022-11-13T04:43:09.027Z,12.71
2022-11-13T04:45:36.259Z,12.67
2022-11-13T04:48:05.717Z,12.59
2022-11-13T04:50:32.342Z,12.56
2022-11-13T04:52:58.815Z,12.53
2022-11-13T04:55:25.557Z,12.54
2022-11-13T04:57:55.521Z,12.55
2022-11-13T05:00:22.649Z,12.58
2022-11-13T05:02:49.251Z,12.60
2022-11-13T05:05:15.921Z,12.61
2022-11-13T05:07:42.700Z,12.63
2022-11-13T05:10:09.844Z,12.65
2022-11-13T05:12:36.519Z,12.67
2022-11-13T05:15:03.980Z,12.67
2022-11-13T05:17:30.522Z,12.67
2022-11-13T05:19:57.110Z,12.66
2022-11-13T05:22:23.670Z,12.64
2022-11-13T05:24:50.127Z,12.61
2022-11-13T05:27:17.735Z,12.60
2022-11-13T05:29:44.762Z,12.58
2022-11-13T05:32:11.311Z,12.55
2022-11-13T05:34:38.010Z,12.49
2022-11-13T05:37:04.572Z,12.45
2022-11-13T05:39:30.962Z,12.41
2022-11-13T05:41:57.435Z,12.40
2022-11-13T05:44:23.997Z,12.37
2022-11-13T05:46:50.466Z,12.35
2022-11-13T05:49:17.039Z,12.33
2022-11-13T05:51:43.643Z,12.30
2022-11-13T05:54:11.159Z,12.30
2022-11-13T05:56:37.988Z,12.27
2022-11-13T05:59:05.138Z,12.25
2022-11-13T06:01:35.080Z,12.24
2022-11-13T06:04:02.238Z,12.23
2022-11-13T06:06:30.449Z,12.21
2022-11-13T06:08:58.337Z,12.23
2022-11-13T06:11:26.816Z,12.22
2022-11-13T06:13:54.481Z,12.25
2022-11-13T06:16:27.262Z,12.24
2022-11-13T06:18:59.015Z,12.26
2022-11-13T06:21:28.985Z,12.30
2022-11-13T06:23:57.321Z,12.34
2022-11-13T06:26:26.064Z,12.37
2022-11-13T06:28:52.690Z,12.42
2022-11-13T06:31:22.726Z,12.42
2022-11-13T06:33:50.057Z,12.43
2022-11-13T06:36:19.642Z,12.43
2022-11-13T06:38:47.946Z,12.45
2022-11-13T06:41:16.668Z,12.45
2022-11-13T06:43:44.233Z,12.49
2022-11-13T06:46:14.112Z,12.52
2022-11-13T06:48:40.710Z,12.58
2022-11-13T06:51:09.996Z,12.62
2022-11-13T06:53:36.563Z,12.70
2022-11-13T06:56:06.360Z,12.73
2022-11-13T06:58:33.368Z,12.79
2022-11-13T07:01:14.566Z,12.78
2022-11-13T07:03:41.242Z,12.83
2022-11-13T07:06:13.939Z,12.85
2022-11-13T07:08:44.153Z,12.84
2022-11-13T07:11:13.595Z,12.85
2022-11-13T07:13:40.940Z,12.85
2022-11-13T07:16:16.176Z,12.84
2022-11-13T07:18:43.337Z,12.84
2022-11-13T07:21:12.049Z,12.82
2022-11-13T07:23:43.494Z,12.82
2022-11-13T07:26:11.508Z,12.81
2022-11-13T07:28:38.451Z,12.80
2022-11-13T07:31:05.654Z,12.77
2022-11-13T07:33:32.298Z,12.70
2022-11-13T07:35:59.694Z,12.64
2022-11-13T07:38:26.653Z,12.56
2022-11-13T07:40:53.894Z,12.48
2022-11-13T07:43:20.707Z,12.36
2022-11-13T07:45:47.383Z,12.25
2022-11-13T07:48:13.938Z,12.14
2022-11-13T07:50:40.540Z,12.02
2022-11-13T07:53:08.830Z,11.91
2022-11-13T07:55:36.187Z,11.80
2022-11-13T07:58:04.399Z,11.71
2022-11-13T08:00:33.356Z,11.62
2022-11-13T08:03:09.140Z,11.53
2022-11-13T08:05:36.332Z,11.50
2022-11-13T08:08:04.009Z,11.44
2022-11-13T08:10:30.795Z,11.41
2022-11-13T08:13:00.240Z,11.36
2022-11-13T08:15:27.732Z,11.33
2022-11-13T08:17:58.471Z,11.31
2022-11-13T08:20:26.609Z,11.29
2022-11-13T08:22:53.221Z,11.28
2022-11-13T08:25:20.477Z,11.26
2022-11-13T08:27:47.106Z,11.25
2022-11-13T08:30:14.749Z,11.24
2022-11-13T08:32:41.322Z,11.25
2022-11-13T08:35:08.191Z,11.26
2022-11-13T08:37:34.802Z,11.27
2022-11-13T08:40:01.376Z,11.30
2022-11-13T08:42:28.111Z,11.32
2022-11-13T08:44:54.670Z,11.37
2022-11-13T08:47:23.416Z,11.42
2022-11-13T08:49:53.481Z,11.49
2022-11-13T08:52:20.045Z,11.57
2022-11-13T08:54:46.635Z,11.66
2022-11-13T08:57:13.293Z,11.74
2022-11-13T08:59:39.968Z,11.83
2022-11-13T09:02:06.564Z,11.90
2022-11-13T09:04:33.085Z,11.97
2022-11-13T09:06:59.639Z,12.03
2022-11-13T09:09:26.285Z,12.08
2022-11-13T09:11:52.861Z,12.15
2022-11-13T09:14:19.421Z,12.22
2022-11-13T09:16:45.834Z,12.28
2022-11-13T09:19:12.331Z,12.35
2022-11-13T09:21:38.852Z,12.44
2022-11-13T09:24:06.481Z,12.52
2022-11-13T09:26:34.864Z,12.60
2022-11-13T09:29:01.614Z,12.70
2022-11-13T09:31:28.208Z,12.77
2022-11-13T09:33:54.748Z,12.88
2022-11-13T09:36:21.469Z,12.97
2022-11-13T09:38:48.058Z,13.06
2022-11-13T09:41:19.449Z,13.14
2022-11-13T09:43:58.252Z,13.23
2022-11-13T09:46:40.795Z,13.32
2022-11-13T09:49:16.141Z,13.36
2022-11-13T09:51:51.177Z,13.45
2022-11-13T09:54:18.073Z,13.55
2022-11-13T09:56:59.618Z,13.60
2022-11-13T09:59:39.693Z,13.70
2022-11-13T10:02:22.840Z,13.83
2022-11-13T10:05:07.358Z,13.93
2022-11-13T10:08:03.318Z,14.03
2022-11-13T10:10:55.267Z,14.20
2022-11-13T10:13:28.393Z,14.31
2022-11-13T10:16:03.699Z,14.43
2022-11-13T10:18:35.276Z,14.55
2022-11-13T10:21:23.800Z,14.62
2022-11-13T10:23:56.733Z,14.75
2022-11-13T10:26:27.370Z,14.88
2022-11-13T10:29:02.722Z,14.97
2022-11-13T10:31:29.472Z,15.11
2022-11-13T10:33:57.524Z,15.22
2022-11-13T10:36:54.633Z,15.31
2022-11-13T10:39:21.232Z,15.49
2022-11-13T10:41:53.443Z,15.61
2022-11-13T10:44:23.682Z,15.75
2022-11-13T10:46:50.159Z,15.93
2022-11-13T10:49:29.092Z,16.10
2022-11-13T10:51:57.704Z,16.31
2022-11-13T10:54:27.885Z,16.49
2022-11-13T10:57:03.726Z,16.68
2022-11-13T10:59:41.462Z,16.92
2022-11-13T11:02:20.372Z,17.21
2022-11-13T11:04:47.333Z,17.59
2022-11-13T11:07:21.918Z,18.03
2022-11-13T11:09:50.716Z,18.61
2022-11-13T11:12:30.747Z,19.28
2022-11-13T11:14:58.188Z,20.02
2022-11-13T11:17:50.653Z,20.82
2022-11-13T11:20:26.015Z,21.57
2022-11-13T11:23:00.084Z,22.34
2022-11-13T11:25:41.334Z,23.10
2022-11-13T11:28:46.584Z,23.85
2022-11-13T11:31:37.334Z,24.59
2022-11-13T11:34:44.921Z,25.22
2022-11-13T11:37:17.217Z,25.72
2022-11-13T11:39:50.129Z,26.11
2022-11-13T11:42:28.350Z,26.42
2022-11-13T11:45:15.886Z,26.69
2022-11-13T11:47:43.945Z,26.95
2022-11-13T11:50:47.170Z,27.10
2022-11-13T11:53:27.493Z,27.32
2022-11-13T11:56:09.532Z,27.55
2022-11-13T11:58:58.405Z,27.68
2022-11-13T12:01:50.397Z,27.86
2022-11-13T12:04:42.127Z,28.01
2022-11-13T12:07:38.853Z,28.18
2022-11-13T12:10:27.188Z,28.33
2022-11-13T12:12:59.681Z,28.52
2022-11-13T12:15:26.150Z,28.68
2022-11-13T12:18:17.370Z,28.85
2022-11-13T12:20:56.827Z,28.97
2022-11-13T12:24:01.597Z,28.99
2022-11-13T12:26:47.362Z,28.91
2022-11-13T12:29:19.782Z,28.67
2022-11-13T12:32:04.637Z,28.16
2022-11-13T12:34:59.123Z,27.44
2022-11-13T12:37:38.653Z,26.70
2022-11-13T12:40:19.640Z,25.95
2022-11-13T12:42:46.007Z,25.28
2022-11-13T12:45:27.728Z,24.48
2022-11-13T12:47:54.264Z,23.92
2022-11-13T12:50:20.839Z,23.34
2022-11-13T12:53:01.376Z,22.68
2022-11-13T12:55:34.774Z,22.22
2022-11-13T12:58:32.022Z,21.66
2022-11-13T13:01:10.272Z,21.28
2022-11-13T13:03:49.822Z,20.90
2022-11-13T13:06:37.576Z,20.62
2022-11-13T13:09:33.859Z,20.28
2022-11-13T13:12:17.606Z,20.02
2022-11-13T13:15:12.093Z,19.78
2022-11-13T13:17:39.439Z,19.66
2022-11-13T13:20:49.400Z,19.47
2022-11-13T13:23:27.461Z,19.40
2022-11-13T13:26:03.245Z,19.42
2022-11-13T13:28:31.619Z,19.51
2022-11-13T13:31:13.169Z,19.59
2022-11-13T13:34:03.715Z,19.69
2022-11-13T13:36:49.179Z,19.82
2022-11-13T13:39:21.554Z,20.03
2022-11-13T13:42:06.531Z,20.31
2022-11-13T13:44:41.939Z,20.77
2022-11-13T13:47:23.847Z,21.28
2022-11-13T13:49:52.021Z,21.82
2022-11-13T13:52:26.799Z,22.26
2022-11-13T13:54:53.671Z,22.66
2022-11-13T13:57:20.254Z,22.96
2022-11-13T13:59:46.834Z,23.24
2022-11-13T14:02:18.755Z,23.45
2022-11-13T14:04:47.736Z,23.65
2022-11-13T14:07:33.694Z,23.74
2022-11-13T14:10:13.116Z,23.84
2022-11-13T14:12:44.172Z,23.88
2022-11-13T14:15:30.059Z,23.72
2022-11-13T14:18:09.876Z,23.52
2022-11-13T14:20:45.104Z,23.33
2022-11-13T14:23:22.963Z,23.11
2022-11-13T14:25:50.483Z,23.01
2022-11-13T14:28:19.629Z,23.00
2022-11-13T14:30:54.674Z,23.05
2022-11-13T14:33:30.392Z,23.19
2022-11-13T14:35:58.834Z,23.23
2022-11-13T14:38:29.206Z,23.10
2022-11-13T14:40:56.158Z,22.83
2022-11-13T14:43:29.502Z,22.42
2022-11-13T14:46:01.349Z,21.98
2022-11-13T14:48:35.050Z,21.50
2022-11-13T14:51:07.267Z,21.05
2022-11-13T14:53:35.237Z,20.64
2022-11-13T14:56:04.684Z,20.20
2022-11-13T14:58:40.161Z,19.76
2022-11-13T15:01:22.416Z,19.35
2022-11-13T15:03:50.434Z,19.05
2022-11-13T15:06:22.713Z,18.71
2022-11-13T15:08:53.991Z,18.45
2022-11-13T15:11:22.471Z,18.19
2022-11-13T15:13:50.372Z,17.95
2022-11-13T15:16:23.799Z,17.65
2022-11-13T15:19:02.761Z,17.44
2022-11-13T15:21:30.162Z,17.26
2022-11-13T15:23:57.079Z,17.08
2022-11-13T15:26:24.310Z,16.90
2022-11-13T15:28:50.905Z,16.74
2022-11-13T15:31:32.610Z,16.52
2022-11-13T15:33:59.056Z,16.39
2022-11-13T15:36:26.201Z,16.23
2022-11-13T15:38:52.717Z,16.06
2022-11-13T15:41:24.634Z,15.88
2022-11-13T15:43:53.610Z,15.75
2022-11-13T15:46:22.346Z,15.63
2022-11-13T15:48:49.626Z,15.52
2022-11-13T15:51:48.378Z,15.36
2022-11-13T15:54:22.278Z,15.26
2022-11-13T15:56:48.778Z,15.15
2022-11-13T15:59:15.489Z,15.03
2022-11-13T16:01:42.283Z,14.92
2022-11-13T16:07:29.397Z,14.65
2022-11-13T16:09:56.027Z,14.56
2022-11-13T16:12:22.530Z,14.43
2022-11-13T16:14:49.093Z,14.32
2022-11-13T16:17:20.285Z,14.20
2022-11-13T16:19:52.876Z,14.08
2022-11-13T16:22:21.071Z,14.00
2022-11-13T16:24:47.589Z,13.90
2022-11-13T16:27:22.612Z,13.79
2022-11-13T16:29:49.144Z,13.70
2022-11-13T16:32:16.761Z,13.60
2022-11-13T16:34:44.575Z,13.50
2022-11-13T16:37:19.053Z,13.37
2022-11-13T16:39:45.685Z,13.31
2022-11-13T16:42:13.546Z,13.22
2022-11-13T16:44:40.449Z,13.11
2022-11-13T16:47:17.622Z,12.99
2022-11-13T16:49:44.066Z,12.89
2022-11-13T16:52:10.528Z,12.79
2022-11-13T16:54:37.019Z,12.68
2022-11-13T16:57:03.584Z,12.56
2022-11-13T16:59:30.096Z,12.43
2022-11-13T17:01:57.075Z,12.30
2022-11-13T17:04:23.581Z,12.18
2022-11-13T17:06:51.464Z,12.07
2022-11-13T17:09:20.690Z,11.96
2022-11-13T17:11:47.197Z,11.87
2022-11-13T17:14:13.945Z,11.76
2022-11-13T17:16:40.361Z,11.68
2022-11-13T17:19:06.962Z,11.57
2022-11-13T17:21:33.453Z,11.49
2022-11-13T17:24:02.635Z,11.39
2022-11-13T17:26:31.269Z,11.32
2022-11-13T17:28:59.849Z,11.25
2022-11-13T17:31:26.758Z,11.17
2022-11-13T17:33:54.217Z,11.07
2022-11-13T17:36:21.686Z,11.00
2022-11-13T17:38:48.272Z,10.94
2022-11-13T17:41:16.454Z,10.86
2022-11-13T17:43:43.326Z,10.79
2022-11-13T17:46:12.903Z,10.70
2022-11-13T17:48:39.882Z,10.63
2022-11-13T17:51:08.214Z,10.54
2022-11-13T17:53:34.887Z,10.47
2022-11-13T17:56:04.899Z,10.37
2022-11-13T17:58:37.582Z,10.27
2022-11-13T18:01:06.733Z,10.20
2022-11-13T18:03:33.827Z,10.11
2022-11-13T18:06:08.408Z,10.00
2022-11-13T18:08:37.482Z,9.93
2022-11-13T18:11:09.043Z,9.83
2022-11-13T18:13:36.400Z,9.78
2022-11-13T18:16:05.540Z,9.71
2022-11-13T18:18:32.120Z,9.64
2022-11-13T18:20:59.302Z,9.57
2022-11-13T18:23:26.529Z,9.51
2022-11-13T18:25:53.189Z,9.45
2022-11-13T18:28:19.784Z,9.40
2022-11-13T18:30:46.289Z,9.37
2022-11-13T18:33:13.017Z,9.34
2022-11-13T18:35:39.561Z,9.32
2022-11-13T18:38:06.109Z,9.29
2022-11-13T18:40:32.626Z,9.25
2022-11-13T18:42:59.119Z,9.23
2022-11-13T18:45:25.585Z,9.21
2022-11-13T18:47:52.079Z,9.21
2022-11-13T18:50:18.657Z,9.19
2022-11-13T18:52:45.205Z,9.19
2022-11-13T18:55:11.818Z,9.20
2022-11-13T18:57:38.296Z,9.20
2022-11-13T19:00:05.326Z,9.19
2022-11-13T19:02:31.818Z,9.19
2022-11-13T19:04:58.266Z,9.20
2022-11-13T19:07:24.879Z,9.19
2022-11-13T19:09:51.429Z,9.20
2022-11-13T19:12:18.031Z,9.19
2022-11-13T19:14:44.535Z,9.20
2022-11-13T19:17:11.126Z,9.22
2022-11-13T19:19:37.884Z,9.22
2022-11-13T19:22:04.274Z,9.23
2022-11-13T19:24:30.994Z,9.25
2022-11-13T19:26:57.545Z,9.27
2022-11-13T19:29:24.176Z,9.29
2022-11-13T19:31:53.584Z,9.29
2022-11-13T19:34:20.116Z,9.32
2022-11-13T19:36:49.454Z,9.33
2022-11-13T19:39:16.833Z,9.32
2022-11-13T19:41:43.448Z,9.33
2022-11-13T19:44:09.982Z,9.33
2022-11-13T19:46:36.516Z,9.33
2022-11-13T19:49:03.186Z,9.34
2022-11-13T19:51:29.666Z,9.34
2022-11-13T19:53:58.440Z,9.34
2022-11-13T19:56:27.026Z,9.33
2022-11-13T19:58:53.833Z,9.34
2022-11-13T20:01:23.780Z,9.33
2022-11-13T20:03:58.149Z,9.33
2022-11-13T20:06:26.205Z,9.35
2022-11-13T20:08:52.798Z,9.36
2022-11-13T20:11:19.353Z,9.37
2022-11-13T20:13:46.342Z,9.38
2022-11-13T20:16:15.581Z,9.37
2022-11-13T20:18:43.491Z,9.38
2022-11-13T20:21:10.522Z,9.37
2022-11-13T20:23:37.127Z,9.36
2022-11-13T20:26:06.407Z,9.37
2022-11-13T20:28:33.328Z,9.35
2022-11-13T20:31:03.762Z,9.33
2022-11-13T20:33:32.929Z,9.33
2022-11-13T20:35:59.425Z,9.31
2022-11-13T20:38:26.207Z,9.29
2022-11-13T20:40:52.856Z,9.28
2022-11-13T20:43:19.462Z,9.27
2022-11-13T20:45:46.017Z,9.27
2022-11-13T20:48:12.634Z,9.27
2022-11-13T20:50:39.297Z,9.28
2022-11-13T20:53:05.909Z,9.28
2022-11-13T20:55:32.522Z,9.28
2022-11-13T20:57:59.038Z,9.30
2022-11-13T21:00:25.725Z,9.30
2022-11-13T21:02:52.272Z,9.30
2022-11-13T21:05:18.755Z,9.29
2022-11-13T21:07:45.379Z,9.29
2022-11-13T21:10:11.910Z,9.28
2022-11-13T21:12:38.472Z,9.29
2022-11-13T21:15:05.499Z,9.28
2022-11-13T21:17:32.052Z,9.29
2022-11-13T21:19:58.591Z,9.28
2022-11-13T21:22:25.139Z,9.28
2022-11-13T21:24:51.687Z,9.28
2022-11-13T21:27:18.170Z,9.28
2022-11-13T21:29:44.764Z,9.29
2022-11-13T21:32:11.311Z,9.29
2022-11-13T21:34:38.299Z,9.30
2022-11-13T21:37:04.835Z,9.29
2022-11-13T21:39:31.487Z,9.29
2022-11-13T21:41:58.012Z,9.30
2022-11-13T21:44:24.573Z,9.28
2022-11-13T21:46:51.162Z,9.29
2022-11-13T21:49:17.697Z,9.28
2022-11-13T21:51:44.349Z,9.27
2022-11-13T21:54:11.056Z,9.27
2022-11-13T21:56:38.917Z,9.25
2022-11-13T21:59:06.868Z,9.25
2022-11-13T22:01:38.369Z,9.25
2022-11-13T22:04:06.187Z,9.25
2022-11-13T22:06:36.387Z,9.23
2022-11-13T22:09:07.887Z,9.21
2022-11-13T22:11:36.114Z,9.22
2022-11-13T22:14:03.298Z,9.21
2022-11-13T22:16:32.816Z,9.21
2022-11-13T22:19:03.479Z,9.19
2022-11-13T22:21:31.052Z,9.19
2022-11-13T22:23:58.800Z,9.20
2022-11-13T22:26:26.575Z,9.19
2022-11-13T22:28:54.212Z,9.18
2022-11-13T22:31:28.607Z,9.13
2022-11-13T22:33:55.624Z,9.13
2022-11-13T22:36:27.419Z,9.09
2022-11-13T22:38:54.553Z,9.10
2022-11-13T22:41:29.295Z,9.05
2022-11-13T22:43:59.753Z,9.04
2022-11-13T22:46:29.468Z,9.03
2022-11-13T22:48:57.126Z,9.03
2022-11-13T22:51:29.713Z,8.99
2022-11-13T22:54:01.480Z,8.99
2022-11-13T22:56:30.140Z,8.96
2022-11-13T22:58:59.342Z,8.95
2022-11-13T23:01:28.153Z,8.93
2022-11-13T23:03:55.941Z,8.91
2022-11-13T23:06:24.806Z,8.89
2022-11-13T23:08:51.873Z,8.87
2022-11-13T23:11:30.342Z,8.84
2022-11-13T23:13:58.799Z,8.84
2022-11-13T23:16:26.827Z,8.83
2022-11-13T23:18:55.781Z,8.81
2022-11-13T23:21:22.698Z,8.80
2022-11-13T23:23:49.255Z,8.77
2022-11-13T23:26:16.724Z,8.73
2022-11-13T23:28:43.487Z,8.71
2022-11-13T23:31:10.459Z,8.70
2022-11-13T23:33:38.074Z,8.69
2022-11-13T23:36:05.747Z,8.69
2022-11-13T23:38:32.483Z,8.70
2022-11-13T23:41:01.011Z,8.68
2022-11-13T23:43:47.749Z,8.69
2022-11-13T23:46:15.715Z,8.70
2022-11-13T23:48:42.400Z,8.71
2022-11-13T23:51:09.379Z,8.71
2022-11-13T23:53:35.946Z,8.72
2022-11-13T23:56:02.509Z,8.72
2022-11-13T23:58:30.459Z,8.72
